Time;durP1;ratioP1;P1;durP2;ratioP2;P2;SDS_P1;SDS_P2;PMS_P1;PMS_P2;Temp;Humidity;BMP_temperature;BMP_pressure;BME280_temperature;BME280_humidity;BME280_pressure;Samples;Min_cycle;Max_cycle;Signal;HPM_P1;HPM_P2
2023/04/01 00:01:35;;;;;;;0.10;0.10;;;11.40;99.90;;;;;;5037195;28;20210;-81
2023/04/01 00:04:01;;;;;;;0.10;0.10;;;11.40;99.90;;;;;;5053225;28;20189;-81
2023/04/01 00:06:27;;;;;;;0.10;0.10;;;11.40;99.90;;;;;;5035573;28;20209;-81
2023/04/01 00:08:53;;;;;;;0.10;0.10;;;11.40;99.90;;;;;;5054467;28;20691;-81
2023/04/01 00:11:19;;;;;;;0.10;0.10;;;11.40;99.90;;;;;;5033997;28;20209;-81
2023/04/01 00:13:45;;;;;;;0.10;0.10;;;11.40;99.90;;;;;;5036752;28;20196;-81
2023/04/01 00:16:10;;;;;;;0.10;0.10;;;11.40;99.90;;;;;;5036311;28;20272;-81
2023/04/01 00:18:36;;;;;;;0.07;0.07;;;11.40;99.90;;;;;;5035680;28;20182;-82
2023/04/01 00:21:02;;;;;;;0.10;0.10;;;11.40;99.90;;;;;;5036377;28;20222;-82
2023/04/01 00:23:28;;;;;;;0.10;0.10;;;11.40;99.90;;;;;;5036159;28;20186;-81
2023/04/01 00:25:53;;;;;;;0.10;0.10;;;11.40;99.90;;;;;;5029289;28;20217;-81
2023/04/01 00:28:20;;;;;;;0.10;0.10;;;11.40;99.90;;;;;;5036814;28;20332;-81
2023/04/01 00:30:46;;;;;;;0.10;0.10;;;11.30;99.90;;;;;;5036536;28;20868;-81
2023/04/01 00:33:12;;;;;;;0.00;0.00;;;11.30;99.90;;;;;;5036036;28;20232;-81
2023/04/01 00:35:38;;;;;;;0.10;0.10;;;11.20;99.90;;;;;;5036451;28;20710;-81
2023/04/01 00:38:04;;;;;;;0.10;0.10;;;11.30;99.90;;;;;;5037257;28;20221;-81
2023/04/01 00:40:33;;;;;;;0.10;0.10;;;11.30;99.90;;;;;;5054844;28;20212;-81
2023/04/01 00:42:59;;;;;;;0.10;0.10;;;11.20;99.90;;;;;;5037348;28;20192;-81
2023/04/01 00:45:39;;;;;;;0.10;0.10;;;11.20;99.90;;;;;;5055483;28;20210;-81
2023/04/01 00:48:09;;;;;;;0.10;0.10;;;11.20;99.90;;;;;;5035948;28;20565;-81
2023/04/01 00:50:38;;;;;;;0.07;0.07;;;11.10;99.90;;;;;;5054860;28;20210;-82
2023/04/01 00:53:06;;;;;;;0.10;0.10;;;11.10;99.90;;;;;;5035603;28;20276;-82
2023/04/01 00:55:35;;;;;;;0.10;0.10;;;11.20;99.90;;;;;;5035226;28;20871;-81
2023/04/01 00:58:06;;;;;;;0.10;0.10;;;11.10;99.90;;;;;;5053964;28;20684;-81
2023/04/01 01:00:32;;;;;;;0.10;0.10;;;11.10;99.90;;;;;;5038923;28;20682;-80
2023/04/01 01:02:57;;;;;;;0.10;0.10;;;11.10;99.90;;;;;;5055789;28;20251;-81
2023/04/01 01:05:37;;;;;;;0.10;0.10;;;11.10;99.90;;;;;;5037175;28;20193;-81
2023/04/01 01:08:21;;;;;;;0.10;0.10;;;11.10;99.90;;;;;;5054696;28;20227;-81
2023/04/01 01:10:50;;;;;;;0.03;0.03;;;11.10;99.90;;;;;;5036029;28;20216;-81
2023/04/01 01:13:34;;;;;;;0.10;0.10;;;11.10;99.90;;;;;;5057806;28;20192;-81
2023/04/01 01:16:29;;;;;;;0.10;0.10;;;11.10;99.90;;;;;;5041764;28;20272;-81
2023/04/01 01:19:28;;;;;;;0.10;0.10;;;11.10;99.90;;;;;;5059920;28;20200;-80
2023/04/01 01:22:02;;;;;;;0.10;0.10;;;11.10;99.90;;;;;;5059029;28;20209;-81
2023/04/01 01:25:08;;;;;;;0.10;0.10;;;11.10;99.90;;;;;;5041294;28;20194;-81
2023/04/01 01:27:36;;;;;;;0.10;0.10;;;11.10;99.90;;;;;;5039264;28;20244;-81
2023/04/01 01:30:30;;;;;;;0.10;0.10;;;11.10;99.90;;;;;;5040581;28;20213;-81
2023/04/01 01:33:40;;;;;;;0.10;0.10;;;11.10;99.90;;;;;;5005814;28;20205;-80
2023/04/01 01:36:11;;;;;;;0.10;0.10;;;11.00;99.90;;;;;;4990105;28;20626;-82
2023/04/01 01:38:38;;;;;;;0.10;0.10;;;11.00;99.90;;;;;;5032350;28;20217;-82
2023/04/01 01:41:07;;;;;;;0.10;0.10;;;11.00;99.90;;;;;;5058632;28;20896;-81
2023/04/01 01:43:38;;;;;;;0.10;0.10;;;11.00;99.90;;;;;;5058518;28;20673;-82
2023/04/01 01:46:12;;;;;;;0.10;0.10;;;11.00;99.90;;;;;;5058459;28;21142;-81
2023/04/01 01:48:38;;;;;;;0.10;0.10;;;11.00;99.90;;;;;;5057558;28;20209;-81
2023/04/01 01:51:06;;;;;;;0.03;0.03;;;11.00;99.90;;;;;;5038676;28;20216;-81
2023/04/01 01:53:31;;;;;;;0.10;0.10;;;11.00;99.90;;;;;;5040834;28;20189;-82
2023/04/01 01:55:57;;;;;;;0.10;0.10;;;11.00;99.90;;;;;;5058434;28;20261;-81
2023/04/01 01:58:40;;;;;;;0.10;0.10;;;11.00;99.90;;;;;;5039466;28;20177;-82
2023/04/01 02:01:10;;;;;;;0.10;0.10;;;11.00;99.90;;;;;;5039634;28;20673;-81
2023/04/01 02:03:39;;;;;;;0.10;0.10;;;11.00;99.90;;;;;;5037841;28;20182;-81
2023/04/01 02:06:09;;;;;;;0.10;0.10;;;11.00;99.90;;;;;;5041405;28;20686;-81
2023/04/01 02:08:52;;;;;;;0.10;0.10;;;11.00;99.90;;;;;;5038844;28;20188;-81
2023/04/01 02:11:22;;;;;;;0.10;0.10;;;11.00;99.90;;;;;;5041994;28;20206;-81
2023/04/01 02:14:01;;;;;;;0.10;0.10;;;11.00;99.90;;;;;;5056879;28;20203;-81
2023/04/01 02:16:39;;;;;;;0.10;0.10;;;10.90;99.90;;;;;;5042326;28;20196;-81
2023/04/01 02:19:09;;;;;;;0.10;0.10;;;10.80;99.90;;;;;;5057859;28;20653;-81
2023/04/01 02:21:36;;;;;;;0.10;0.10;;;10.90;99.90;;;;;;5036670;28;20925;-81
2023/04/01 02:24:07;;;;;;;0.10;0.10;;;10.90;99.90;;;;;;5059034;28;20238;-82
2023/04/01 02:26:33;;;;;;;0.10;0.10;;;10.90;99.90;;;;;;5048981;28;20259;-80
2023/04/01 02:29:00;;;;;;;0.10;0.10;;;10.90;99.90;;;;;;5040155;28;20242;-80
2023/04/01 02:31:27;;;;;;;0.00;0.00;;;10.90;99.90;;;;;;5040442;28;20210;-80
2023/04/01 02:33:54;;;;;;;0.10;0.10;;;10.80;99.90;;;;;;5041679;28;20189;-80
2023/04/01 02:36:20;;;;;;;0.10;0.10;;;10.80;99.90;;;;;;5038872;28;20181;-80
2023/04/01 02:38:47;;;;;;;0.10;0.10;;;10.80;99.90;;;;;;5037984;28;20208;-80
2023/04/01 02:41:13;;;;;;;0.00;0.00;;;10.80;99.90;;;;;;5057303;28;20215;-80
2023/04/01 02:43:39;;;;;;;0.10;0.10;;;10.80;99.90;;;;;;5038079;28;20194;-79
2023/04/01 02:46:04;;;;;;;0.10;0.10;;;10.80;99.90;;;;;;5040321;28;20794;-80
2023/04/01 02:48:30;;;;;;;0.10;0.10;;;10.70;99.90;;;;;;5037800;28;20185;-80
2023/04/01 02:50:55;;;;;;;0.10;0.10;;;10.80;99.90;;;;;;5039241;28;20204;-79
2023/04/01 02:53:21;;;;;;;0.00;0.00;;;10.80;99.90;;;;;;5040072;28;20198;-80
2023/04/01 02:55:49;;;;;;;0.10;0.10;;;10.80;99.90;;;;;;5056446;28;20220;-80
2023/04/01 02:58:15;;;;;;;0.10;0.10;;;10.70;99.90;;;;;;5037513;28;20189;-79
2023/04/01 03:00:40;;;;;;;0.10;0.10;;;10.70;99.90;;;;;;5036734;28;20288;-80
2023/04/01 03:03:06;;;;;;;0.10;0.10;;;10.70;99.90;;;;;;5057423;28;20205;-80
2023/04/01 03:05:32;;;;;;;0.10;0.10;;;10.70;99.90;;;;;;5030267;28;20194;-81
2023/04/01 03:07:57;;;;;;;0.10;0.10;;;10.70;99.90;;;;;;5037277;28;20207;-81
2023/04/01 03:10:23;;;;;;;0.10;0.10;;;10.70;99.90;;;;;;5035667;28;20293;-81
2023/04/01 03:12:48;;;;;;;0.10;0.10;;;10.70;99.90;;;;;;5056164;28;20228;-80
2023/04/01 03:15:14;;;;;;;0.10;0.10;;;10.60;99.90;;;;;;5056412;28;20208;-80
2023/04/01 03:17:41;;;;;;;0.03;0.03;;;10.70;99.90;;;;;;5039807;28;20189;-80
2023/04/01 03:20:08;;;;;;;0.10;0.10;;;10.70;99.90;;;;;;5058806;28;20279;-80
2023/04/01 03:22:35;;;;;;;0.10;0.10;;;10.70;99.90;;;;;;5040727;28;20289;-80
2023/04/01 03:25:01;;;;;;;0.10;0.10;;;10.70;99.90;;;;;;5054927;28;20190;-80
2023/04/01 03:27:27;;;;;;;0.10;0.10;;;10.70;99.90;;;;;;5037361;28;20232;-80
2023/04/01 03:29:52;;;;;;;0.10;0.10;;;10.60;99.90;;;;;;5038436;28;20469;-80
2023/04/01 03:32:18;;;;;;;0.10;0.10;;;10.60;99.90;;;;;;5056352;28;20235;-80
2023/04/01 03:34:44;;;;;;;0.10;0.10;;;10.60;99.90;;;;;;5038478;28;20257;-80
2023/04/01 03:37:09;;;;;;;0.10;0.10;;;10.60;99.90;;;;;;5038050;28;20286;-80
2023/04/01 03:39:35;;;;;;;0.10;0.10;;;10.50;99.90;;;;;;5053258;28;20190;-84
2023/04/01 03:42:01;;;;;;;0.10;0.10;;;10.60;99.90;;;;;;5039580;28;20248;-80
2023/04/01 03:44:31;;;;;;;0.10;0.10;;;10.60;99.90;;;;;;5037508;28;20194;-81
2023/04/01 03:46:56;;;;;;;0.10;0.10;;;10.60;99.90;;;;;;5040464;28;20205;-81
2023/04/01 03:49:22;;;;;;;0.10;0.10;;;10.60;99.90;;;;;;5038492;28;20185;-81
2023/04/01 03:51:47;;;;;;;0.10;0.10;;;10.60;99.90;;;;;;5036638;28;20202;-80
2023/04/01 03:54:13;;;;;;;0.10;0.10;;;10.60;99.90;;;;;;5039490;28;20519;-80
2023/04/01 03:56:38;;;;;;;0.10;0.10;;;10.60;99.90;;;;;;5038039;28;20593;-80
2023/04/01 03:59:06;;;;;;;0.10;0.10;;;10.60;99.90;;;;;;5056485;28;20219;-80
2023/04/01 04:01:32;;;;;;;0.10;0.10;;;10.60;99.90;;;;;;5038723;28;21215;-79
2023/04/01 04:03:59;;;;;;;0.10;0.10;;;10.60;99.90;;;;;;5037038;28;20219;-80
2023/04/01 04:06:25;;;;;;;0.10;0.10;;;10.60;99.90;;;;;;5039341;28;20211;-79
2023/04/01 04:08:51;;;;;;;0.07;0.07;;;10.60;99.90;;;;;;5036389;28;20480;-80
2023/04/01 04:11:18;;;;;;;0.10;0.10;;;10.60;99.90;;;;;;5057500;28;20686;-80
2023/04/01 04:13:44;;;;;;;0.10;0.10;;;10.60;99.90;;;;;;5037354;28;20182;-80
2023/04/01 04:16:10;;;;;;;0.10;0.10;;;10.60;99.90;;;;;;5037679;28;20181;-80
2023/04/01 04:18:36;;;;;;;0.10;0.10;;;10.60;99.90;;;;;;5056752;28;20186;-80
2023/04/01 04:21:03;;;;;;;0.10;0.10;;;10.60;99.90;;;;;;5035647;28;20205;-79
2023/04/01 04:23:30;;;;;;;0.10;0.10;;;10.60;99.90;;;;;;5055936;28;20826;-79
2023/04/01 04:26:22;;;;;;;0.10;0.10;;;10.60;99.90;;;;;;5033824;28;20182;-80
2023/04/01 04:28:48;;;;;;;0.10;0.10;;;10.50;99.90;;;;;;5051380;28;20206;-80
2023/04/01 04:31:20;;;;;;;0.10;0.10;;;10.60;99.90;;;;;;5037336;28;20262;-80
2023/04/01 04:33:45;;;;;;;0.10;0.10;;;10.60;99.90;;;;;;5054764;28;20158;-80
2023/04/01 04:36:11;;;;;;;0.10;0.10;;;10.60;99.90;;;;;;5037526;28;20466;-80
2023/04/01 04:38:37;;;;;;;0.00;0.00;;;10.60;99.90;;;;;;5036954;28;20276;-80
2023/04/01 04:41:02;;;;;;;0.07;0.07;;;10.60;99.90;;;;;;5038672;28;20213;-80
2023/04/01 04:43:28;;;;;;;0.10;0.10;;;10.60;99.90;;;;;;5040364;28;20188;-80
2023/04/01 04:45:53;;;;;;;0.10;0.10;;;10.60;99.90;;;;;;5059263;28;20200;-80
2023/04/01 04:48:20;;;;;;;0.10;0.10;;;10.60;99.90;;;;;;5038667;28;20611;-80
2023/04/01 04:50:50;;;;;;;0.10;0.10;;;10.60;99.90;;;;;;5036073;28;20205;-80
2023/04/01 04:53:17;;;;;;;0.10;0.10;;;10.60;99.90;;;;;;5037714;28;20178;-80
2023/04/01 04:55:48;;;;;;;0.07;0.07;;;10.60;99.90;;;;;;5033998;28;20239;-80
2023/04/01 04:58:14;;;;;;;0.10;0.10;;;10.60;99.90;;;;;;5054761;28;20230;-80
2023/04/01 05:00:39;;;;;;;0.10;0.10;;;10.60;99.90;;;;;;5053228;28;20196;-80
2023/04/01 05:03:05;;;;;;;0.10;0.10;;;10.60;99.90;;;;;;5036390;28;20191;-80
2023/04/01 05:05:31;;;;;;;0.10;0.10;;;10.50;99.90;;;;;;5051131;28;20272;-80
2023/04/01 05:07:57;;;;;;;0.03;0.03;;;10.50;99.90;;;;;;5036435;28;20331;-79
2023/04/01 05:10:22;;;;;;;0.10;0.10;;;10.50;99.90;;;;;;5036010;28;20690;-80
2023/04/01 05:12:48;;;;;;;0.10;0.10;;;10.50;99.90;;;;;;5037664;28;20276;-80
2023/04/01 05:15:14;;;;;;;0.10;0.10;;;10.50;99.90;;;;;;5034546;28;20173;-80
2023/04/01 05:17:40;;;;;;;0.10;0.10;;;10.50;99.90;;;;;;5039725;28;20671;-82
2023/04/01 05:20:07;;;;;;;0.10;0.10;;;10.60;99.90;;;;;;5038779;28;20267;-82
2023/04/01 05:22:32;;;;;;;0.10;0.10;;;10.60;99.90;;;;;;5038240;28;20189;-80
2023/04/01 05:24:58;;;;;;;0.10;0.10;;;10.60;99.90;;;;;;5037310;28;20193;-81
2023/04/01 05:27:23;;;;;;;0.10;0.10;;;10.50;99.90;;;;;;5056475;28;20680;-81
2023/04/01 05:29:49;;;;;;;0.10;0.10;;;10.50;99.90;;;;;;5038419;28;20322;-82
2023/04/01 05:32:16;;;;;;;0.10;0.10;;;10.60;99.90;;;;;;5056725;28;20201;-81
2023/04/01 05:34:42;;;;;;;0.07;0.07;;;10.50;99.90;;;;;;5057928;28;20181;-81
2023/04/01 05:37:07;;;;;;;0.10;0.10;;;10.50;99.90;;;;;;5057783;28;20186;-82
2023/04/01 05:39:39;;;;;;;0.10;0.10;;;10.50;99.90;;;;;;5041473;28;20201;-82
2023/04/01 05:42:08;;;;;;;0.10;0.10;;;10.50;99.90;;;;;;5038753;28;20213;-81
2023/04/01 05:44:35;;;;;;;0.10;0.10;;;10.50;99.90;;;;;;5035812;28;20545;-81
2023/04/01 05:47:01;;;;;;;0.10;0.10;;;10.60;99.90;;;;;;5037860;28;20224;-81
2023/04/01 05:49:26;;;;;;;0.10;0.10;;;10.60;99.90;;;;;;5051957;28;20721;-82
2023/04/01 05:51:52;;;;;;;0.10;0.10;;;10.60;99.90;;;;;;5037285;28;20201;-81
2023/04/01 05:54:18;;;;;;;0.10;0.10;;;10.50;99.90;;;;;;5057415;28;20186;-81
2023/04/01 05:56:44;;;;;;;0.00;0.00;;;10.50;99.90;;;;;;5038884;28;20205;-82
2023/04/01 05:59:10;;;;;;;0.10;0.10;;;10.60;99.90;;;;;;5044532;28;20189;-81
2023/04/01 06:01:36;;;;;;;0.00;0.00;;;10.60;99.90;;;;;;5058557;28;20248;-82
2023/04/01 06:04:02;;;;;;;0.10;0.10;;;10.50;99.90;;;;;;5044240;28;20218;-81
2023/04/01 06:06:29;;;;;;;0.10;0.10;;;10.60;99.90;;;;;;5043885;28;20278;-82
2023/04/01 06:08:58;;;;;;;0.10;0.10;;;10.60;99.90;;;;;;5042569;28;20598;-81
2023/04/01 06:11:42;;;;;;;0.10;0.10;;;10.60;99.90;;;;;;5042810;28;20232;-82
2023/04/01 06:14:18;;;;;;;0.10;0.10;;;10.60;99.90;;;;;;5059690;28;20188;-82
2023/04/01 06:17:07;;;;;;;0.10;0.10;;;10.60;99.90;;;;;;5052196;28;20965;-82
2023/04/01 06:19:51;;;;;;;0.10;0.10;;;10.60;99.90;;;;;;5044785;28;20179;-83
2023/04/01 06:22:38;;;;;;;0.10;0.10;;;10.60;99.90;;;;;;5043868;28;20264;-79
2023/04/01 06:25:22;;;;;;;0.10;0.10;;;10.60;99.90;;;;;;5041348;28;20182;-80
2023/04/01 06:27:57;;;;;;;0.00;0.00;;;10.70;99.90;;;;;;5036413;28;20751;-80
2023/04/01 06:30:41;;;;;;;0.10;0.10;;;10.70;99.90;;;;;;5037008;28;20270;-81
2023/04/01 06:33:23;;;;;;;0.10;0.10;;;10.60;99.90;;;;;;5039096;28;20783;-81
2023/04/01 06:35:48;;;;;;;0.10;0.10;;;10.70;99.90;;;;;;5046233;28;20189;-81
2023/04/01 06:38:36;;;;;;;0.10;0.10;;;10.70;99.90;;;;;;5052825;28;20263;-81
2023/04/01 06:41:31;;;;;;;0.10;0.10;;;10.60;99.90;;;;;;5005684;28;20240;-81
2023/04/01 06:44:19;;;;;;;0.10;0.10;;;10.70;99.90;;;;;;5042708;28;20187;-81
2023/04/01 06:46:48;;;;;;;0.10;0.10;;;10.70;99.90;;;;;;5060461;28;20640;-81
2023/04/01 06:49:16;;;;;;;0.00;0.00;;;10.70;99.90;;;;;;5064737;28;20228;-81
2023/04/01 06:51:56;;;;;;;0.10;0.10;;;10.70;99.90;;;;;;5049463;28;20231;-81
2023/04/01 06:54:34;;;;;;;0.10;0.10;;;10.70;99.90;;;;;;5048769;28;20203;-81
2023/04/01 06:57:23;;;;;;;0.10;0.10;;;10.70;99.90;;;;;;5045561;28;20184;-81
2023/04/01 06:59:49;;;;;;;0.03;0.03;;;10.80;99.90;;;;;;5043848;28;20177;-81
2023/04/01 07:02:39;;;;;;;0.10;0.10;;;10.70;99.90;;;;;;5043538;28;20224;-81
2023/04/01 07:05:06;;;;;;;0.10;0.10;;;10.80;99.90;;;;;;5043928;28;20197;-81
2023/04/01 07:07:37;;;;;;;0.10;0.10;;;10.80;99.90;;;;;;5044993;28;20214;-81
2023/04/01 07:10:09;;;;;;;0.10;0.10;;;10.80;99.90;;;;;;5043664;28;20248;-81
2023/04/01 07:12:46;;;;;;;0.10;0.10;;;10.80;99.90;;;;;;5041099;28;20184;-82
2023/04/01 07:15:21;;;;;;;0.00;0.00;;;10.80;99.90;;;;;;5043221;28;20600;-82
2023/04/01 07:17:53;;;;;;;0.10;0.10;;;10.70;99.90;;;;;;5062392;28;20279;-82
2023/04/01 07:20:48;;;;;;;0.00;0.00;;;10.70;99.90;;;;;;5045444;28;20232;-81
2023/04/01 07:23:24;;;;;;;0.10;0.10;;;10.70;99.90;;;;;;5034713;28;20280;-82
2023/04/01 07:25:58;;;;;;;0.10;0.10;;;10.80;99.90;;;;;;5060546;28;20185;-82
2023/04/01 07:28:24;;;;;;;0.10;0.10;;;10.70;99.90;;;;;;5058789;28;20208;-82
2023/04/01 07:31:10;;;;;;;0.10;0.10;;;10.90;99.90;;;;;;5060923;28;20182;-81
2023/04/01 07:34:00;;;;;;;0.10;0.10;;;10.90;99.90;;;;;;5077409;28;20177;-81
2023/04/01 07:36:44;;;;;;;0.10;0.10;;;11.00;99.90;;;;;;5050699;28;20177;-80
2023/04/01 07:39:30;;;;;;;0.10;0.10;;;11.20;99.90;;;;;;5042880;28;20281;-79
2023/04/01 07:42:19;;;;;;;0.10;0.10;;;11.40;99.90;;;;;;5062580;28;20656;-81
2023/04/01 07:45:04;;;;;;;0.10;0.10;;;11.50;99.90;;;;;;5056093;28;20622;-85
2023/04/01 07:47:38;;;;;;;0.10;0.10;;;11.60;99.90;;;;;;5057149;28;20292;-79
2023/04/01 07:50:17;;;;;;;0.10;0.10;;;11.70;99.90;;;;;;5039658;28;20250;-80
2023/04/01 07:52:58;;;;;;;0.10;0.10;;;11.60;99.90;;;;;;5038251;28;20296;-80
2023/04/01 07:55:31;;;;;;;0.10;0.10;;;11.70;99.90;;;;;;5032154;28;20603;-80
2023/04/01 07:58:03;;;;;;;0.10;0.10;;;11.60;99.90;;;;;;5054539;28;21510;-79
2023/04/01 08:00:48;;;;;;;0.10;0.10;;;11.60;99.90;;;;;;5037461;28;20924;-80
2023/04/01 08:03:28;;;;;;;0.10;0.10;;;11.60;99.90;;;;;;5036263;28;21204;-80
2023/04/01 08:06:06;;;;;;;0.10;0.10;;;11.50;99.90;;;;;;5030279;28;20197;-80
2023/04/01 08:08:50;;;;;;;0.10;0.10;;;11.50;99.90;;;;;;5037820;28;20205;-80
2023/04/01 08:11:27;;;;;;;0.10;0.10;;;11.40;99.90;;;;;;5032115;28;20208;-80
2023/04/01 08:14:22;;;;;;;0.10;0.10;;;11.40;99.90;;;;;;5039811;28;20184;-80
2023/04/01 08:17:10;;;;;;;0.10;0.10;;;11.50;99.90;;;;;;5041017;28;20554;-80
2023/04/01 08:20:01;;;;;;;0.10;0.10;;;11.50;99.90;;;;;;5036698;28;20667;-81
2023/04/01 08:22:34;;;;;;;0.10;0.10;;;11.50;99.90;;;;;;5035976;28;20272;-80
2023/04/01 08:25:03;;;;;;;0.10;0.10;;;11.60;99.90;;;;;;5044796;28;20228;-80
2023/04/01 08:27:51;;;;;;;0.10;0.10;;;11.70;99.90;;;;;;5056658;28;20232;-80
2023/04/01 08:30:22;;;;;;;0.10;0.10;;;11.70;99.90;;;;;;5037930;28;20631;-80
2023/04/01 08:33:00;;;;;;;0.10;0.10;;;11.70;99.90;;;;;;5040408;28;20177;-79
2023/04/01 08:35:46;;;;;;;0.10;0.10;;;11.80;99.90;;;;;;5036157;28;20196;-81
2023/04/01 08:38:17;;;;;;;0.10;0.10;;;11.70;99.90;;;;;;5054421;28;20193;-81
2023/04/01 08:40:57;;;;;;;0.10;0.10;;;11.70;99.90;;;;;;5040066;28;20209;-80
2023/04/01 08:43:29;;;;;;;0.10;0.10;;;11.70;99.90;;;;;;5034199;28;20279;-80
2023/04/01 08:46:22;;;;;;;0.10;0.10;;;11.70;99.90;;;;;;5037296;28;20174;-80
2023/04/01 08:48:53;;;;;;;0.10;0.10;;;11.80;99.90;;;;;;5047699;28;20256;-80
2023/04/01 08:51:41;;;;;;;0.10;0.10;;;11.90;99.90;;;;;;5025502;28;20325;-81
2023/04/01 08:54:44;;;;;;;0.10;0.10;;;12.00;99.90;;;;;;5052124;28;20282;-81
2023/04/01 08:57:20;;;;;;;0.10;0.10;;;12.00;99.90;;;;;;5026474;28;20184;-79
2023/04/01 09:00:04;;;;;;;0.10;0.10;;;11.90;99.90;;;;;;5036078;28;20243;-79
2023/04/01 09:03:04;;;;;;;0.10;0.10;;;11.90;99.90;;;;;;5033724;28;20187;-80
2023/04/01 09:05:52;;;;;;;0.10;0.10;;;11.80;99.90;;;;;;5035432;28;20181;-81
2023/04/01 09:08:42;;;;;;;0.10;0.10;;;11.90;99.90;;;;;;5024344;28;20249;-81
2023/04/01 09:11:26;;;;;;;0.10;0.10;;;12.00;99.90;;;;;;5052358;28;20310;-81
2023/04/01 09:14:17;;;;;;;0.10;0.10;;;11.90;99.90;;;;;;5036196;28;20563;-82
2023/04/01 09:16:58;;;;;;;0.10;0.10;;;11.90;99.90;;;;;;5034898;28;20198;-81
2023/04/01 09:19:42;;;;;;;0.10;0.10;;;12.00;99.90;;;;;;5032388;28;20451;-80
2023/04/01 09:22:20;;;;;;;0.10;0.10;;;11.90;99.90;;;;;;5035290;28;20207;-80
2023/04/01 09:24:58;;;;;;;0.10;0.10;;;12.00;99.90;;;;;;5034820;28;20185;-80
2023/04/01 09:27:30;;;;;;;0.10;0.10;;;11.90;99.90;;;;;;5031224;28;20210;-79
2023/04/01 09:30:34;;;;;;;0.10;0.10;;;12.00;99.90;;;;;;5032522;28;20213;-81
2023/04/01 09:33:37;;;;;;;0.00;0.00;;;11.90;99.90;;;;;;5035737;28;20218;-81
2023/04/01 09:36:28;;;;;;;0.10;0.10;;;12.10;99.90;;;;;;5058821;28;20194;-81
2023/04/01 09:39:03;;;;;;;0.00;0.00;;;12.10;99.90;;;;;;5037499;28;20885;-82
2023/04/01 09:41:41;;;;;;;0.10;0.10;;;12.10;99.90;;;;;;5037228;28;20295;-80
2023/04/01 09:44:31;;;;;;;0.10;0.10;;;12.20;99.90;;;;;;5038628;28;20189;-81
2023/04/01 09:47:15;;;;;;;0.10;0.10;;;12.30;99.90;;;;;;5055671;28;20209;-82
2023/04/01 09:50:15;;;;;;;0.10;0.10;;;12.60;99.90;;;;;;5038445;28;20258;-80
2023/04/01 09:53:00;;;;;;;0.00;0.00;;;12.90;99.90;;;;;;5045800;28;20281;-81
2023/04/01 09:55:40;;;;;;;0.10;0.10;;;13.10;99.90;;;;;;5037237;28;20617;-80
2023/04/01 09:58:07;;;;;;;0.10;0.10;;;13.20;99.90;;;;;;5049102;28;20223;-79
2023/04/01 10:01:02;;;;;;;0.07;0.07;;;13.00;99.90;;;;;;5040546;28;20216;-80
2023/04/01 10:03:55;;;;;;;0.10;0.10;;;13.10;99.90;;;;;;5038519;28;20572;-80
2023/04/01 10:06:57;;;;;;;0.10;0.10;;;13.00;99.90;;;;;;5058692;28;20181;-80
2023/04/01 10:09:42;;;;;;;0.10;0.10;;;12.90;99.90;;;;;;5040682;28;20195;-80
2023/04/01 10:12:36;;;;;;;0.00;0.00;;;12.90;99.90;;;;;;5030974;28;20222;-80
2023/04/01 10:15:23;;;;;;;0.10;0.10;;;13.00;99.90;;;;;;5038598;28;20267;-80
2023/04/01 10:18:19;;;;;;;0.00;0.00;;;13.00;99.90;;;;;;5038811;28;20187;-80
2023/04/01 10:20:54;;;;;;;0.00;0.00;;;13.00;99.90;;;;;;5040059;28;20211;-80
2023/04/01 10:23:43;;;;;;;0.10;0.10;;;13.10;99.90;;;;;;5047183;28;20189;-80
2023/04/01 10:26:38;;;;;;;0.10;0.10;;;13.10;99.90;;;;;;5034960;28;22066;-83
2023/04/01 10:29:48;;;;;;;0.10;0.10;;;13.10;99.90;;;;;;5043608;28;20262;-80
2023/04/01 10:32:55;;;;;;;0.10;0.10;;;13.20;99.90;;;;;;5030289;28;20307;-81
2023/04/01 10:35:24;;;;;;;0.10;0.10;;;13.30;99.90;;;;;;5057242;28;20190;-80
2023/04/01 10:38:21;;;;;;;0.10;0.10;;;13.40;99.90;;;;;;5042951;28;20212;-81
2023/04/01 10:41:16;;;;;;;0.10;0.10;;;13.60;99.90;;;;;;5041530;28;20206;-81
2023/04/01 10:43:50;;;;;;;0.10;0.10;;;13.60;99.90;;;;;;5048975;28;20199;-80
2023/04/01 10:46:54;;;;;;;0.10;0.10;;;13.60;99.90;;;;;;5056418;28;20875;-81
2023/04/01 10:50:05;;;;;;;0.10;0.10;;;13.50;99.90;;;;;;5049971;28;20183;-81
2023/04/01 10:52:58;;;;;;;0.10;0.10;;;13.60;99.90;;;;;;5042441;28;20208;-81
2023/04/01 10:55:27;;;;;;;0.10;0.10;;;13.60;99.90;;;;;;5041006;28;20276;-81
2023/04/01 10:58:37;;;;;;;0.10;0.10;;;13.70;99.90;;;;;;5040278;28;20188;-82
2023/04/01 11:01:16;;;;;;;0.00;0.00;;;13.80;99.90;;;;;;5046780;28;20236;-81
2023/04/01 11:03:44;;;;;;;0.10;0.10;;;14.10;99.90;;;;;;5036761;28;20435;-80
2023/04/01 11:06:38;;;;;;;0.10;0.10;;;14.20;99.90;;;;;;5055412;28;20188;-80
2023/04/01 11:09:52;;;;;;;0.10;0.10;;;14.20;99.90;;;;;;5051848;28;20204;-80
2023/04/01 11:12:45;;;;;;;0.10;0.10;;;14.40;99.90;;;;;;5037823;28;20211;-80
2023/04/01 11:15:44;;;;;;;0.10;0.10;;;14.40;99.90;;;;;;5038628;28;20216;-80
2023/04/01 11:18:25;;;;;;;0.00;0.00;;;14.40;99.90;;;;;;5031641;28;20196;-80
2023/04/01 11:21:22;;;;;;;0.07;0.07;;;14.40;99.90;;;;;;5032670;28;20642;-80
2023/04/01 11:24:05;;;;;;;0.10;0.10;;;14.40;99.90;;;;;;5056775;28;20554;-80
2023/04/01 11:26:43;;;;;;;0.10;0.10;;;14.30;99.90;;;;;;5054665;28;20215;-80
2023/04/01 11:29:31;;;;;;;0.10;0.10;;;14.20;99.90;;;;;;5038236;28;20198;-80
2023/04/01 11:32:39;;;;;;;0.10;0.10;;;14.20;99.90;;;;;;5033733;28;20574;-79
2023/04/01 11:35:23;;;;;;;0.10;0.10;;;14.10;99.90;;;;;;5035524;28;20214;-80
2023/04/01 11:38:16;;;;;;;0.10;0.10;;;14.10;99.90;;;;;;5035301;28;20200;-80
2023/04/01 11:41:02;;;;;;;0.10;0.10;;;14.10;99.90;;;;;;5034761;28;20304;-80
2023/04/01 11:43:52;;;;;;;0.10;0.10;;;14.20;99.90;;;;;;5034897;28;20330;-79
2023/04/01 11:46:38;;;;;;;0.10;0.10;;;13.90;99.90;;;;;;5037127;28;20196;-80
2023/04/01 11:49:04;;;;;;;0.10;0.10;;;14.10;99.90;;;;;;5038812;28;20203;-80
2023/04/01 11:51:45;;;;;;;0.10;0.10;;;14.10;99.90;;;;;;5039661;28;20287;-80
2023/04/01 11:54:46;;;;;;;0.10;0.10;;;14.10;99.90;;;;;;5037954;28;20192;-80
2023/04/01 11:57:33;;;;;;;0.10;0.10;;;14.10;99.90;;;;;;5038263;28;20180;-80
2023/04/01 12:00:13;;;;;;;0.10;0.10;;;13.80;99.90;;;;;;5035375;28;20210;-80
2023/04/01 12:03:18;;;;;;;0.10;0.10;;;13.80;99.90;;;;;;5042412;28;20238;-80
2023/04/01 12:05:46;;;;;;;0.10;0.10;;;13.70;99.90;;;;;;5053229;28;21314;-80
2023/04/01 12:08:27;;;;;;;0.10;0.10;;;13.60;99.90;;;;;;5035099;28;20235;-80
2023/04/01 12:10:56;;;;;;;0.03;0.03;;;13.50;99.90;;;;;;5037417;28;20198;-80
2023/04/01 12:13:31;;;;;;;0.10;0.10;;;13.30;99.90;;;;;;5050528;28;20217;-80
2023/04/01 12:16:19;;;;;;;0.10;0.10;;;13.20;99.90;;;;;;5036481;28;20912;-80
2023/04/01 12:18:51;;;;;;;0.00;0.00;;;13.30;99.90;;;;;;5032757;28;20188;-80
2023/04/01 12:21:36;;;;;;;0.10;0.10;;;13.20;99.90;;;;;;5034726;28;20204;-80
2023/04/01 12:24:26;;;;;;;0.10;0.10;;;13.40;99.90;;;;;;5033025;28;20227;-80
2023/04/01 12:27:11;;;;;;;0.10;0.10;;;13.70;99.90;;;;;;5053644;28;20215;-80
2023/04/01 12:29:36;;;;;;;0.10;0.10;;;13.90;99.90;;;;;;5036108;28;20693;-80
2023/04/01 12:32:30;;;;;;;0.10;0.10;;;14.00;99.90;;;;;;5037631;28;20213;-80
2023/04/01 12:35:23;;;;;;;0.10;0.10;;;14.20;99.90;;;;;;5040552;28;20181;-81
2023/04/01 12:38:13;;;;;;;0.10;0.10;;;14.10;99.90;;;;;;5039913;28;20561;-81
2023/04/01 12:40:57;;;;;;;0.10;0.10;;;14.10;99.90;;;;;;5041496;28;20230;-81
2023/04/01 12:43:47;;;;;;;0.10;0.10;;;14.40;99.90;;;;;;5056677;28;20242;-82
2023/04/01 12:46:20;;;;;;;0.10;0.10;;;14.50;99.90;;;;;;5039268;28;20187;-81
2023/04/01 12:49:19;;;;;;;0.10;0.10;;;14.60;99.90;;;;;;5045136;28;20560;-80
2023/04/01 12:52:04;;;;;;;0.10;0.10;;;14.70;99.90;;;;;;5035305;28;20287;-80
2023/04/01 12:55:12;;;;;;;0.10;0.10;;;14.60;99.90;;;;;;5034847;28;20195;-79
2023/04/01 12:58:29;;;;;;;0.10;0.10;;;14.60;99.90;;;;;;5039808;28;20540;-81
2023/04/01 13:01:32;;;;;;;0.10;0.10;;;14.40;99.90;;;;;;5019410;28;20262;-81
2023/04/01 13:04:17;;;;;;;0.10;0.10;;;14.50;99.90;;;;;;5042141;28;20288;-81
2023/04/01 13:06:55;;;;;;;0.10;0.10;;;14.40;99.90;;;;;;5042923;28;20246;-81
2023/04/01 13:09:26;;;;;;;0.10;0.10;;;14.30;99.90;;;;;;5040377;28;20207;-82
2023/04/01 13:12:18;;;;;;;0.10;0.10;;;14.50;99.90;;;;;;5042481;28;20207;-81
2023/04/01 13:15:08;;;;;;;0.10;0.10;;;14.60;99.90;;;;;;5039632;28;20248;-81
2023/04/01 13:18:00;;;;;;;0.10;0.10;;;14.40;99.90;;;;;;5040688;28;20192;-80
2023/04/01 13:20:26;;;;;;;0.10;0.10;;;14.20;99.90;;;;;;5041619;28;20205;-81
2023/04/01 13:23:12;;;;;;;0.10;0.10;;;14.00;99.90;;;;;;5040846;28;20193;-81
2023/04/01 13:25:59;;;;;;;0.10;0.10;;;14.00;99.90;;;;;;5037969;28;20277;-82
2023/04/01 13:28:35;;;;;;;0.10;0.10;;;14.00;99.90;;;;;;5059556;28;20249;-81
2023/04/01 13:31:35;;;;;;;0.10;0.10;;;13.90;99.90;;;;;;5042515;28;20222;-82
2023/04/01 13:34:20;;;;;;;0.10;0.10;;;13.70;99.90;;;;;;5033276;28;20184;-82
2023/04/01 13:36:46;;;;;;;0.10;0.10;;;13.50;99.90;;;;;;5038533;28;20268;-81
2023/04/01 13:39:23;;;;;;;0.10;0.10;;;13.30;99.90;;;;;;5045163;28;20686;-81